sensor_id;sensor_type;location;lat;lon;timestamp;pressure;altitude;pressure_sealevel;temperature;humidity
72636;BME280;60679;48.888;15.544;2024-01-30T00:00:31;97880.91;;;-2.99;92.86
72636;BME280;60679;48.888;15.544;2024-01-30T00:02:57;97883.00;;;-3.04;92.48
72636;BME280;60679;48.888;15.544;2024-01-30T00:05:22;97885.00;;;-3.08;92.82
72636;BME280;60679;48.888;15.544;2024-01-30T00:07:48;97892.16;;;-3.10;92.85
72636;BME280;60679;48.888;15.544;2024-01-30T00:10:13;97885.84;;;-3.07;92.96
72636;BME280;60679;48.888;15.544;2024-01-30T00:12:39;97884.69;;;-3.03;92.93
72636;BME280;60679;48.888;15.544;2024-01-30T00:15:05;97886.28;;;-3.01;92.69
72636;BME280;60679;48.888;15.544;2024-01-30T00:17:33;97883.34;;;-2.96;92.73
72636;BME280;60679;48.888;15.544;2024-01-30T00:19:58;97885.38;;;-2.87;92.91
72636;BME280;60679;48.888;15.544;2024-01-30T00:22:24;97874.94;;;-2.88;92.92
72636;BME280;60679;48.888;15.544;2024-01-30T00:24:49;97873.88;;;-2.86;92.97
72636;BME280;60679;48.888;15.544;2024-01-30T00:27:15;97874.63;;;-2.84;92.66
72636;BME280;60679;48.888;15.544;2024-01-30T00:29:41;97867.41;;;-2.82;92.80
72636;BME280;60679;48.888;15.544;2024-01-30T00:32:07;97867.34;;;-2.80;92.96
72636;BME280;60679;48.888;15.544;2024-01-30T00:34:32;97871.69;;;-2.79;92.88
72636;BME280;60679;48.888;15.544;2024-01-30T00:36:57;97876.13;;;-2.80;92.98
72636;BME280;60679;48.888;15.544;2024-01-30T00:39:23;97888.88;;;-2.86;92.73
72636;BME280;60679;48.888;15.544;2024-01-30T00:41:48;97886.22;;;-2.86;92.90
72636;BME280;60679;48.888;15.544;2024-01-30T00:44:14;97882.94;;;-2.90;92.90
72636;BME280;60679;48.888;15.544;2024-01-30T00:46:39;97883.91;;;-2.91;92.88
72636;BME280;60679;48.888;15.544;2024-01-30T00:49:05;97875.00;;;-2.90;92.84
72636;BME280;60679;48.888;15.544;2024-01-30T00:51:30;97873.47;;;-2.80;92.85
72636;BME280;60679;48.888;15.544;2024-01-30T00:53:56;97878.22;;;-2.72;92.68
72636;BME280;60679;48.888;15.544;2024-01-30T00:56:21;97878.03;;;-2.69;92.84
72636;BME280;60679;48.888;15.544;2024-01-30T00:58:47;97884.81;;;-2.65;92.72
72636;BME280;60679;48.888;15.544;2024-01-30T01:01:12;97871.50;;;-2.64;92.84
72636;BME280;60679;48.888;15.544;2024-01-30T01:03:38;97872.75;;;-2.57;92.84
72636;BME280;60679;48.888;15.544;2024-01-30T01:06:06;97868.22;;;-2.55;92.98
72636;BME280;60679;48.888;15.544;2024-01-30T01:08:31;97866.44;;;-2.54;92.79
72636;BME280;60679;48.888;15.544;2024-01-30T01:10:57;97865.91;;;-2.47;92.63
72636;BME280;60679;48.888;15.544;2024-01-30T01:13:22;97871.84;;;-2.43;92.70
72636;BME280;60679;48.888;15.544;2024-01-30T01:15:48;97867.94;;;-2.38;92.83
72636;BME280;60679;48.888;15.544;2024-01-30T01:18:13;97867.59;;;-2.33;92.76
72636;BME280;60679;48.888;15.544;2024-01-30T01:20:38;97869.19;;;-2.30;92.83
72636;BME280;60679;48.888;15.544;2024-01-30T01:23:04;97861.78;;;-2.25;93.21
72636;BME280;60679;48.888;15.544;2024-01-30T01:25:29;97856.06;;;-2.19;92.81
72636;BME280;60679;48.888;15.544;2024-01-30T01:27:55;97856.94;;;-2.19;92.75
72636;BME280;60679;48.888;15.544;2024-01-30T01:30:20;97849.84;;;-2.18;92.68
72636;BME280;60679;48.888;15.544;2024-01-30T01:32:51;97862.13;;;-2.17;92.93
72636;BME280;60679;48.888;15.544;2024-01-30T01:35:22;97858.41;;;-2.15;93.01
72636;BME280;60679;48.888;15.544;2024-01-30T01:37:49;97857.25;;;-2.11;92.77
72636;BME280;60679;48.888;15.544;2024-01-30T01:40:23;97856.09;;;-2.07;92.83
72636;BME280;60679;48.888;15.544;2024-01-30T01:42:50;97856.81;;;-2.05;92.87
72636;BME280;60679;48.888;15.544;2024-01-30T01:45:16;97852.25;;;-2.03;92.86
72636;BME280;60679;48.888;15.544;2024-01-30T01:47:42;97853.75;;;-1.99;92.86
72636;BME280;60679;48.888;15.544;2024-01-30T01:50:08;97856.19;;;-1.96;92.76
72636;BME280;60679;48.888;15.544;2024-01-30T01:52:34;97851.75;;;-1.95;93.04
72636;BME280;60679;48.888;15.544;2024-01-30T01:54:59;97853.41;;;-1.94;92.71
72636;BME280;60679;48.888;15.544;2024-01-30T01:57:25;97855.84;;;-1.91;92.97
72636;BME280;60679;48.888;15.544;2024-01-30T01:59:51;97852.25;;;-1.90;92.77
72636;BME280;60679;48.888;15.544;2024-01-30T02:02:17;97849.47;;;-1.89;92.42
72636;BME280;60679;48.888;15.544;2024-01-30T02:04:45;97848.53;;;-1.88;92.64
72636;BME280;60679;48.888;15.544;2024-01-30T02:07:10;97844.94;;;-1.87;92.65
72636;BME280;60679;48.888;15.544;2024-01-30T02:09:36;97848.31;;;-1.85;92.76
72636;BME280;60679;48.888;15.544;2024-01-30T02:12:01;97845.69;;;-1.85;93.10
72636;BME280;60679;48.888;15.544;2024-01-30T02:14:27;97839.53;;;-1.85;92.77
72636;BME280;60679;48.888;15.544;2024-01-30T02:16:52;97839.53;;;-1.85;92.87
72636;BME280;60679;48.888;15.544;2024-01-30T02:19:18;97843.66;;;-1.81;92.74
72636;BME280;60679;48.888;15.544;2024-01-30T02:21:45;97841.63;;;-1.78;92.99
72636;BME280;60679;48.888;15.544;2024-01-30T02:24:11;97838.88;;;-1.76;92.77
72636;BME280;60679;48.888;15.544;2024-01-30T02:26:37;97845.88;;;-1.75;93.01
72636;BME280;60679;48.888;15.544;2024-01-30T02:29:02;97840.59;;;-1.75;93.02
72636;BME280;60679;48.888;15.544;2024-01-30T02:31:27;97837.94;;;-1.75;92.89
72636;BME280;60679;48.888;15.544;2024-01-30T02:33:53;97838.66;;;-1.73;92.88
72636;BME280;60679;48.888;15.544;2024-01-30T02:36:19;97835.06;;;-1.72;92.88
72636;BME280;60679;48.888;15.544;2024-01-30T02:38:44;97843.75;;;-1.70;92.79
72636;BME280;60679;48.888;15.544;2024-01-30T02:41:11;97835.69;;;-1.68;92.84
72636;BME280;60679;48.888;15.544;2024-01-30T02:43:37;97836.53;;;-1.68;93.05
72636;BME280;60679;48.888;15.544;2024-01-30T02:46:02;97832.81;;;-1.65;92.95
72636;BME280;60679;48.888;15.544;2024-01-30T02:48:28;97834.00;;;-1.69;92.86
72636;BME280;60679;48.888;15.544;2024-01-30T02:50:53;97833.88;;;-1.68;92.82
72636;BME280;60679;48.888;15.544;2024-01-30T02:53:19;97829.44;;;-1.67;92.71
72636;BME280;60679;48.888;15.544;2024-01-30T02:55:44;97828.47;;;-1.66;92.94
72636;BME280;60679;48.888;15.544;2024-01-30T02:58:09;97838.97;;;-1.65;92.91
72636;BME280;60679;48.888;15.544;2024-01-30T03:00:35;97832.81;;;-1.65;92.98
72636;BME280;60679;48.888;15.544;2024-01-30T03:03:01;97833.75;;;-1.66;93.06
72636;BME280;60679;48.888;15.544;2024-01-30T03:05:27;97822.22;;;-1.65;93.05
72636;BME280;60679;48.888;15.544;2024-01-30T03:07:52;97825.59;;;-1.63;93.02
72636;BME280;60679;48.888;15.544;2024-01-30T03:10:18;97824.56;;;-1.61;92.97
72636;BME280;60679;48.888;15.544;2024-01-30T03:12:44;97821.06;;;-1.61;92.76
72636;BME280;60679;48.888;15.544;2024-01-30T03:15:09;97821.91;;;-1.61;93.14
72636;BME280;60679;48.888;15.544;2024-01-30T03:17:35;97823.59;;;-1.60;92.82
72636;BME280;60679;48.888;15.544;2024-01-30T03:20:02;97818.94;;;-1.56;92.88
72636;BME280;60679;48.888;15.544;2024-01-30T03:22:28;97823.38;;;-1.57;93.10
72636;BME280;60679;48.888;15.544;2024-01-30T03:24:54;97825.06;;;-1.56;93.04
72636;BME280;60679;48.888;15.544;2024-01-30T03:27:19;97820.50;;;-1.54;93.04
72636;BME280;60679;48.888;15.544;2024-01-30T03:29:45;97820.28;;;-1.51;93.11
72636;BME280;60679;48.888;15.544;2024-01-30T03:32:10;97824.72;;;-1.51;92.98
72636;BME280;60679;48.888;15.544;2024-01-30T03:34:36;97815.84;;;-1.50;93.15
72636;BME280;60679;48.888;15.544;2024-01-30T03:37:02;97821.78;;;-1.47;92.91
72636;BME280;60679;48.888;15.544;2024-01-30T03:39:27;97816.47;;;-1.47;92.95
72636;BME280;60679;48.888;15.544;2024-01-30T03:41:53;97819.00;;;-1.45;93.03
72636;BME280;60679;48.888;15.544;2024-01-30T03:44:18;97821.50;;;-1.44;93.12
72636;BME280;60679;48.888;15.544;2024-01-30T03:46:43;97815.28;;;-1.43;92.81
72636;BME280;60679;48.888;15.544;2024-01-30T03:49:09;97819.63;;;-1.42;92.87
72636;BME280;60679;48.888;15.544;2024-01-30T03:51:35;97821.41;;;-1.42;93.16
72636;BME280;60679;48.888;15.544;2024-01-30T03:54:00;97814.31;;;-1.42;93.01
72636;BME280;60679;48.888;15.544;2024-01-30T03:56:26;97817.41;;;-1.48;93.02
72636;BME280;60679;48.888;15.544;2024-01-30T03:58:51;97812.13;;;-1.48;92.97
72636;BME280;60679;48.888;15.544;2024-01-30T04:01:17;97820.91;;;-1.47;93.15
72636;BME280;60679;48.888;15.544;2024-01-30T04:03:42;97824.91;;;-1.42;92.99
72636;BME280;60679;48.888;15.544;2024-01-30T04:06:09;97823.56;;;-1.47;93.07
72636;BME280;60679;48.888;15.544;2024-01-30T04:08:34;97826.00;;;-1.44;92.95
72636;BME280;60679;48.888;15.544;2024-01-30T04:11:06;97821.28;;;-1.41;92.86
72636;BME280;60679;48.888;15.544;2024-01-30T04:13:32;97821.94;;;-1.37;92.77
72636;BME280;60679;48.888;15.544;2024-01-30T04:16:01;97824.56;;;-1.37;93.17
72636;BME280;60679;48.888;15.544;2024-01-30T04:18:27;97819.91;;;-1.34;92.96
72636;BME280;60679;48.888;15.544;2024-01-30T04:20:53;97815.69;;;-1.36;93.12
72636;BME280;60679;48.888;15.544;2024-01-30T04:23:19;97817.34;;;-1.35;93.14
72636;BME280;60679;48.888;15.544;2024-01-30T04:25:44;97827.94;;;-1.35;93.07
72636;BME280;60679;48.888;15.544;2024-01-30T04:28:10;97825.28;;;-1.35;93.11
72636;BME280;60679;48.888;15.544;2024-01-30T04:30:37;97827.94;;;-1.35;93.05
72636;BME280;60679;48.888;15.544;2024-01-30T04:33:03;97830.38;;;-1.32;92.87
72636;BME280;60679;48.888;15.544;2024-01-30T04:35:28;97829.44;;;-1.31;93.11
72636;BME280;60679;48.888;15.544;2024-01-30T04:37:54;97830.28;;;-1.31;92.96
72636;BME280;60679;48.888;15.544;2024-01-30T04:40:21;97835.56;;;-1.31;93.25
72636;BME280;60679;48.888;15.544;2024-01-30T04:42:46;97833.78;;;-1.30;93.03
72636;BME280;60679;48.888;15.544;2024-01-30T04:45:12;97834.72;;;-1.31;92.88
72636;BME280;60679;48.888;15.544;2024-01-30T04:47:37;97831.94;;;-1.30;93.17
72636;BME280;60679;48.888;15.544;2024-01-30T04:50:06;97830.16;;;-1.29;92.83
72636;BME280;60679;48.888;15.544;2024-01-30T04:52:31;97833.88;;;-1.32;93.00
72636;BME280;60679;48.888;15.544;2024-01-30T04:54:57;97836.94;;;-1.25;92.83
72636;BME280;60679;48.888;15.544;2024-01-30T04:57:23;97836.81;;;-1.24;93.21
72636;BME280;60679;48.888;15.544;2024-01-30T04:59:48;97835.13;;;-1.25;92.86
72636;BME280;60679;48.888;15.544;2024-01-30T05:02:14;97833.22;;;-1.23;93.01
72636;BME280;60679;48.888;15.544;2024-01-30T05:04:40;97830.56;;;-1.23;93.11
72636;BME280;60679;48.888;15.544;2024-01-30T05:07:06;97825.25;;;-1.23;92.74
72636;BME280;60679;48.888;15.544;2024-01-30T05:09:32;97828.75;;;-1.22;92.79
72636;BME280;60679;48.888;15.544;2024-01-30T05:11:57;97826.97;;;-1.22;92.87
72636;BME280;60679;48.888;15.544;2024-01-30T05:14:23;97833.94;;;-1.21;92.84
72636;BME280;60679;48.888;15.544;2024-01-30T05:16:49;97832.25;;;-1.22;92.85
72636;BME280;60679;48.888;15.544;2024-01-30T05:19:15;97825.13;;;-1.21;92.71
72636;BME280;60679;48.888;15.544;2024-01-30T05:21:41;97831.44;;;-1.35;92.78
72636;BME280;60679;48.888;15.544;2024-01-30T05:24:07;97830.44;;;-1.21;92.76
72636;BME280;60679;48.888;15.544;2024-01-30T05:26:35;97832.00;;;-1.19;92.84
72636;BME280;60679;48.888;15.544;2024-01-30T05:29:00;97833.84;;;-1.19;92.84
72636;BME280;60679;48.888;15.544;2024-01-30T05:31:26;97837.22;;;-1.17;92.92
72636;BME280;60679;48.888;15.544;2024-01-30T05:33:52;97832.97;;;-1.20;92.84
72636;BME280;60679;48.888;15.544;2024-01-30T05:36:17;97838.16;;;-1.18;92.82
72636;BME280;60679;48.888;15.544;2024-01-30T05:38:43;97837.44;;;-1.20;92.66
72636;BME280;60679;48.888;15.544;2024-01-30T05:41:09;97840.59;;;-1.15;92.89
72636;BME280;60679;48.888;15.544;2024-01-30T05:43:34;97838.06;;;-1.17;93.00
72636;BME280;60679;48.888;15.544;2024-01-30T05:46:00;97839.13;;;-1.19;92.68
72636;BME280;60679;48.888;15.544;2024-01-30T05:48:26;97835.41;;;-1.17;92.69
72636;BME280;60679;48.888;15.544;2024-01-30T05:50:51;97839.00;;;-1.18;92.71
72636;BME280;60679;48.888;15.544;2024-01-30T05:53:16;97843.59;;;-1.20;92.64
72636;BME280;60679;48.888;15.544;2024-01-30T05:55:42;97837.44;;;-1.20;92.70
72636;BME280;60679;48.888;15.544;2024-01-30T05:58:07;97836.59;;;-1.21;92.71
72636;BME280;60679;48.888;15.544;2024-01-30T06:00:33;97835.94;;;-1.24;92.66
72636;BME280;60679;48.888;15.544;2024-01-30T06:02:58;97836.09;;;-1.26;92.69
72636;BME280;60679;48.888;15.544;2024-01-30T06:05:24;97830.91;;;-1.27;92.91
72636;BME280;60679;48.888;15.544;2024-01-30T06:07:49;97836.50;;;-1.19;92.77
72636;BME280;60679;48.888;15.544;2024-01-30T06:10:15;97835.50;;;-1.18;92.61
72636;BME280;60679;48.888;15.544;2024-01-30T06:12:40;97841.78;;;-1.19;92.80
72636;BME280;60679;48.888;15.544;2024-01-30T06:15:06;97840.31;;;-1.23;92.66
72636;BME280;60679;48.888;15.544;2024-01-30T06:17:32;97848.25;;;-1.23;92.55
72636;BME280;60679;48.888;15.544;2024-01-30T06:19:58;97847.41;;;-1.24;92.52
72636;BME280;60679;48.888;15.544;2024-01-30T06:22:23;97836.22;;;-1.27;92.77
72636;BME280;60679;48.888;15.544;2024-01-30T06:24:49;97838.22;;;-1.31;92.58
72636;BME280;60679;48.888;15.544;2024-01-30T06:27:15;97844.47;;;-1.32;92.56
72636;BME280;60679;48.888;15.544;2024-01-30T06:29:42;97836.66;;;-1.33;92.53
72636;BME280;60679;48.888;15.544;2024-01-30T06:32:08;97839.31;;;-1.33;92.71
72636;BME280;60679;48.888;15.544;2024-01-30T06:34:34;97835.91;;;-1.35;92.69
72636;BME280;60679;48.888;15.544;2024-01-30T06:36:59;97840.03;;;-1.31;92.74
72636;BME280;60679;48.888;15.544;2024-01-30T06:39:26;97840.03;;;-1.31;92.76
72636;BME280;60679;48.888;15.544;2024-01-30T06:41:52;97840.16;;;-1.33;92.68
72636;BME280;60679;48.888;15.544;2024-01-30T06:44:17;97840.16;;;-1.33;92.50
72636;BME280;60679;48.888;15.544;2024-01-30T06:46:43;97836.75;;;-1.35;92.63
72636;BME280;60679;48.888;15.544;2024-01-30T06:49:08;97842.03;;;-1.35;92.67
72636;BME280;60679;48.888;15.544;2024-01-30T06:51:33;97840.81;;;-1.42;92.60
72636;BME280;60679;48.888;15.544;2024-01-30T06:53:59;97839.84;;;-1.41;92.65
72636;BME280;60679;48.888;15.544;2024-01-30T06:56:24;97841.41;;;-1.38;92.66
72636;BME280;60679;48.888;15.544;2024-01-30T06:58:50;97846.72;;;-1.38;92.62
72636;BME280;60679;48.888;15.544;2024-01-30T07:01:16;97845.03;;;-1.39;92.42
72636;BME280;60679;48.888;15.544;2024-01-30T07:03:42;97856.25;;;-1.36;92.71
72636;BME280;60679;48.888;15.544;2024-01-30T07:06:08;97856.25;;;-1.36;92.48
72636;BME280;60679;48.888;15.544;2024-01-30T07:08:34;97860.72;;;-1.36;92.42
72636;BME280;60679;48.888;15.544;2024-01-30T07:10:59;97862.28;;;-1.34;92.53
72636;BME280;60679;48.888;15.544;2024-01-30T07:13:25;97861.94;;;-1.29;92.41
72636;BME280;60679;48.888;15.544;2024-01-30T07:15:50;97862.91;;;-1.30;92.42
72636;BME280;60679;48.888;15.544;2024-01-30T07:18:16;97860.88;;;-1.27;92.30
72636;BME280;60679;48.888;15.544;2024-01-30T07:20:41;97867.25;;;-1.29;92.21
72636;BME280;60679;48.888;15.544;2024-01-30T07:23:12;97863.88;;;-1.31;92.19
72636;BME280;60679;48.888;15.544;2024-01-30T07:25:40;97870.13;;;-1.32;92.17
72636;BME280;60679;48.888;15.544;2024-01-30T07:28:07;97870.00;;;-1.31;92.34
72636;BME280;60679;48.888;15.544;2024-01-30T07:30:34;97870.53;;;-1.26;92.19
72636;BME280;60679;48.888;15.544;2024-01-30T07:33:00;97868.59;;;-1.24;91.97
72636;BME280;60679;48.888;15.544;2024-01-30T07:35:25;97870.53;;;-1.26;92.15
72636;BME280;60679;48.888;15.544;2024-01-30T07:37:51;97879.09;;;-1.22;92.20
72636;BME280;60679;48.888;15.544;2024-01-30T07:40:17;97872.94;;;-1.23;92.13
72636;BME280;60679;48.888;15.544;2024-01-30T07:42:43;97873.81;;;-1.22;91.97
72636;BME280;60679;48.888;15.544;2024-01-30T07:45:09;97868.50;;;-1.22;92.04
72636;BME280;60679;48.888;15.544;2024-01-30T07:47:34;97865.56;;;-1.30;91.95
72636;BME280;60679;48.888;15.544;2024-01-30T07:50:00;97863.44;;;-1.25;91.83
72636;BME280;60679;48.888;15.544;2024-01-30T07:52:25;97861.41;;;-1.22;92.10
72636;BME280;60679;48.888;15.544;2024-01-30T07:58:15;97871.44;;;-1.14;91.79
72636;BME280;60679;48.888;15.544;2024-01-30T08:00:41;97870.72;;;-1.16;91.76
72636;BME280;60679;48.888;15.544;2024-01-30T08:03:06;97877.06;;;-1.19;91.63
72636;BME280;60679;48.888;15.544;2024-01-30T08:05:32;97872.09;;;-1.23;91.59
72636;BME280;60679;48.888;15.544;2024-01-30T08:07:57;97869.94;;;-1.18;91.70
72636;BME280;60679;48.888;15.544;2024-01-30T08:10:23;97875.78;;;-1.13;91.78
72636;BME280;60679;48.888;15.544;2024-01-30T08:12:48;97869.28;;;-1.09;91.69
72636;BME280;60679;48.888;15.544;2024-01-30T08:15:14;97877.97;;;-1.07;91.39
72636;BME280;60679;48.888;15.544;2024-01-30T08:17:39;97873.28;;;-1.03;91.68
72636;BME280;60679;48.888;15.544;2024-01-30T08:20:06;97874.66;;;-0.98;91.70
72636;BME280;60679;48.888;15.544;2024-01-30T08:22:33;97875.63;;;-0.99;91.62
72636;BME280;60679;48.888;15.544;2024-01-30T08:24:59;97867.91;;;-1.02;91.39
72636;BME280;60679;48.888;15.544;2024-01-30T08:27:24;97876.22;;;-0.95;91.64
72636;BME280;60679;48.888;15.544;2024-01-30T08:29:50;97867.53;;;-0.97;91.15
72636;BME280;60679;48.888;15.544;2024-01-30T08:32:15;97874.66;;;-0.98;91.23
72636;BME280;60679;48.888;15.544;2024-01-30T08:34:41;97880.66;;;-0.96;91.12
72636;BME280;60679;48.888;15.544;2024-01-30T08:37:06;97873.13;;;-0.89;91.44
72636;BME280;60679;48.888;15.544;2024-01-30T08:39:32;97877.25;;;-0.85;91.06
72636;BME280;60679;48.888;15.544;2024-01-30T08:41:57;97880.22;;;-0.90;90.75
72636;BME280;60679;48.888;15.544;2024-01-30T08:44:23;97877.94;;;-0.94;90.92
72636;BME280;60679;48.888;15.544;2024-01-30T08:46:48;97874.41;;;-0.95;91.05
72636;BME280;60679;48.888;15.544;2024-01-30T08:49:16;97880.13;;;-0.88;90.95
72636;BME280;60679;48.888;15.544;2024-01-30T08:51:42;97875.06;;;-0.91;90.75
72636;BME280;60679;48.888;15.544;2024-01-30T08:54:07;97877.69;;;-0.91;90.68
72636;BME280;60679;48.888;15.544;2024-01-30T08:56:33;97882.38;;;-0.95;90.67
72636;BME280;60679;48.888;15.544;2024-01-30T08:58:58;97880.66;;;-0.96;90.72
72636;BME280;60679;48.888;15.544;2024-01-30T09:01:25;97882.50;;;-0.96;90.93
72636;BME280;60679;48.888;15.544;2024-01-30T09:03:51;97880.34;;;-0.91;90.73
72636;BME280;60679;48.888;15.544;2024-01-30T09:06:16;97882.16;;;-0.92;90.77
72636;BME280;60679;48.888;15.544;2024-01-30T09:08:42;97879.16;;;-0.87;90.78
72636;BME280;60679;48.888;15.544;2024-01-30T09:11:12;97870.75;;;-0.81;90.43
72636;BME280;60679;48.888;15.544;2024-01-30T09:13:38;97875.19;;;-0.82;90.39
72636;BME280;60679;48.888;15.544;2024-01-30T09:16:04;97877.75;;;-0.80;90.63
72636;BME280;60679;48.888;15.544;2024-01-30T09:18:30;97880.81;;;-0.74;90.38
72636;BME280;60679;48.888;15.544;2024-01-30T09:20:55;97881.47;;;-0.83;90.06
72636;BME280;60679;48.888;15.544;2024-01-30T09:23:21;97889.88;;;-0.89;90.34
72636;BME280;60679;48.888;15.544;2024-01-30T09:25:47;97885.44;;;-0.88;90.34
72636;BME280;60679;48.888;15.544;2024-01-30T09:28:12;97893.88;;;-0.83;90.29
72636;BME280;60679;48.888;15.544;2024-01-30T09:30:38;97893.06;;;-0.73;90.49
72636;BME280;60679;48.888;15.544;2024-01-30T09:33:04;97888.28;;;-0.68;90.18
72636;BME280;60679;48.888;15.544;2024-01-30T09:35:30;97887.22;;;-0.65;90.33
72636;BME280;60679;48.888;15.544;2024-01-30T09:37:55;97897.06;;;-0.67;90.10
72636;BME280;60679;48.888;15.544;2024-01-30T09:40:22;97888.66;;;-0.61;90.06
72636;BME280;60679;48.888;15.544;2024-01-30T09:42:50;97878.81;;;-0.48;89.79
72636;BME280;60679;48.888;15.544;2024-01-30T09:45:18;97888.09;;;-0.53;89.41
72636;BME280;60679;48.888;15.544;2024-01-30T09:47:44;97884.94;;;-0.59;89.78
72636;BME280;60679;48.888;15.544;2024-01-30T09:50:12;97889.91;;;-0.54;89.70
72636;BME280;60679;48.888;15.544;2024-01-30T09:52:38;97882.56;;;-0.50;89.64
72636;BME280;60679;48.888;15.544;2024-01-30T09:55:05;97888.16;;;-0.42;89.80
72636;BME280;60679;48.888;15.544;2024-01-30T09:57:31;97885.38;;;-0.41;89.60
72636;BME280;60679;48.888;15.544;2024-01-30T09:59:57;97885.38;;;-0.41;89.95
72636;BME280;60679;48.888;15.544;2024-01-30T10:02:23;97890.44;;;-0.38;89.56
72636;BME280;60679;48.888;15.544;2024-01-30T10:04:49;97891.66;;;-0.31;89.54
72636;BME280;60679;48.888;15.544;2024-01-30T10:07:15;97889.28;;;-0.23;89.67
72636;BME280;60679;48.888;15.544;2024-01-30T10:09:41;97895.78;;;-0.27;89.47
72636;BME280;60679;48.888;15.544;2024-01-30T10:12:07;97895.78;;;-0.27;89.42
72636;BME280;60679;48.888;15.544;2024-01-30T10:14:34;97888.91;;;-0.29;89.18
72636;BME280;60679;48.888;15.544;2024-01-30T10:17:00;97893.97;;;-0.26;89.43
72636;BME280;60679;48.888;15.544;2024-01-30T10:19:26;97893.00;;;-0.25;89.30
72636;BME280;60679;48.888;15.544;2024-01-30T10:21:52;97891.31;;;-0.26;89.24
72636;BME280;60679;48.888;15.544;2024-01-30T10:24:18;97885.78;;;-0.23;89.43
72636;BME280;60679;48.888;15.544;2024-01-30T10:26:44;97884.56;;;-0.19;89.13
72636;BME280;60679;48.888;15.544;2024-01-30T10:29:09;97887.13;;;-0.18;89.30
72636;BME280;60679;48.888;15.544;2024-01-30T10:31:35;97885.41;;;-0.19;89.22
72636;BME280;60679;48.888;15.544;2024-01-30T10:34:00;97881.69;;;-0.16;89.03
72636;BME280;60679;48.888;15.544;2024-01-30T10:36:29;97879.41;;;-0.10;88.93
72636;BME280;60679;48.888;15.544;2024-01-30T10:38:59;97881.22;;;-0.10;88.93
72636;BME280;60679;48.888;15.544;2024-01-30T10:41:31;97881.22;;;-0.10;88.71
72636;BME280;60679;48.888;15.544;2024-01-30T10:44:09;97874.09;;;-0.10;88.65
72636;BME280;60679;48.888;15.544;2024-01-30T10:46:39;97872.28;;;-0.09;88.50
72636;BME280;60679;48.888;15.544;2024-01-30T10:49:08;97871.94;;;-0.05;88.37
72636;BME280;60679;48.888;15.544;2024-01-30T10:51:34;97868.81;;;0.02;88.54
72636;BME280;60679;48.888;15.544;2024-01-30T10:54:03;97867.00;;;0.02;88.49
72636;BME280;60679;48.888;15.544;2024-01-30T10:56:29;97866.28;;;0.11;88.56
72636;BME280;60679;48.888;15.544;2024-01-30T10:58:56;97857.56;;;0.20;88.17
72636;BME280;60679;48.888;15.544;2024-01-30T11:01:22;97857.72;;;0.19;88.10
72636;BME280;60679;48.888;15.544;2024-01-30T11:03:50;97857.72;;;0.08;88.10
72636;BME280;60679;48.888;15.544;2024-01-30T11:06:16;97857.47;;;0.11;88.48
72636;BME280;60679;48.888;15.544;2024-01-30T11:08:45;97854.91;;;0.09;88.15
72636;BME280;60679;48.888;15.544;2024-01-30T11:11:10;97849.13;;;0.15;88.19
72636;BME280;60679;48.888;15.544;2024-01-30T11:13:36;97843.81;;;0.15;88.20
72636;BME280;60679;48.888;15.544;2024-01-30T11:16:03;97846.72;;;0.23;88.14
72636;BME280;60679;48.888;15.544;2024-01-30T11:18:30;97844.91;;;0.24;88.11
72636;BME280;60679;48.888;15.544;2024-01-30T11:20:56;97842.97;;;0.26;88.06
72636;BME280;60679;48.888;15.544;2024-01-30T11:23:22;97838.97;;;0.31;88.38
72636;BME280;60679;48.888;15.544;2024-01-30T11:25:48;97841.16;;;0.37;88.19
72636;BME280;60679;48.888;15.544;2024-01-30T11:28:15;97839.09;;;0.41;88.10
72636;BME280;60679;48.888;15.544;2024-01-30T11:30:44;97839.09;;;0.41;87.78
72636;BME280;60679;48.888;15.544;2024-01-30T11:33:11;97831.28;;;0.39;87.91
72636;BME280;60679;48.888;15.544;2024-01-30T11:35:41;97831.97;;;0.52;88.01
72636;BME280;60679;48.888;15.544;2024-01-30T11:38:08;97828.69;;;0.60;87.65
72636;BME280;60679;48.888;15.544;2024-01-30T11:40:36;97833.03;;;0.61;87.51
72636;BME280;60679;48.888;15.544;2024-01-30T11:43:04;97825.69;;;0.65;87.50
72636;BME280;60679;48.888;15.544;2024-01-30T11:45:30;97823.13;;;0.63;87.53
72636;BME280;60679;48.888;15.544;2024-01-30T11:47:56;97830.38;;;0.61;87.83
72636;BME280;60679;48.888;15.544;2024-01-30T11:50:22;97823.13;;;0.63;87.81
72636;BME280;60679;48.888;15.544;2024-01-30T11:52:48;97829.16;;;0.65;87.79
72636;BME280;60679;48.888;15.544;2024-01-30T11:55:14;97821.31;;;0.64;87.69
72636;BME280;60679;48.888;15.544;2024-01-30T11:57:40;97822.66;;;0.58;88.18
72636;BME280;60679;48.888;15.544;2024-01-30T12:00:13;97820.00;;;0.58;87.82
72636;BME280;60679;48.888;15.544;2024-01-30T12:02:40;97814.91;;;0.66;87.97
72636;BME280;60679;48.888;15.544;2024-01-30T12:05:06;97815.97;;;0.75;87.98
72636;BME280;60679;48.888;15.544;2024-01-30T12:07:35;97812.13;;;0.79;87.90
72636;BME280;60679;48.888;15.544;2024-01-30T12:10:01;97812.28;;;0.98;87.55
72636;BME280;60679;48.888;15.544;2024-01-30T12:12:28;97804.91;;;1.01;86.94
72636;BME280;60679;48.888;15.544;2024-01-30T12:14:55;97795.88;;;0.93;87.34
72636;BME280;60679;48.888;15.544;2024-01-30T12:17:32;97788.09;;;1.01;87.38
72636;BME280;60679;48.888;15.544;2024-01-30T12:20:09;97789.41;;;1.06;87.33
72636;BME280;60679;48.888;15.544;2024-01-30T12:22:45;97791.38;;;1.04;87.64
72636;BME280;60679;48.888;15.544;2024-01-30T12:25:12;97789.56;;;0.94;87.58
72636;BME280;60679;48.888;15.544;2024-01-30T12:27:39;97795.47;;;0.97;87.59
72636;BME280;60679;48.888;15.544;2024-01-30T12:30:14;97787.66;;;1.16;87.54
72636;BME280;60679;48.888;15.544;2024-01-30T12:32:42;97789.63;;;1.35;87.23
72636;BME280;60679;48.888;15.544;2024-01-30T12:35:19;97790.13;;;1.50;86.87
72636;BME280;60679;48.888;15.544;2024-01-30T12:37:46;97786.31;;;1.63;86.58
72636;BME280;60679;48.888;15.544;2024-01-30T12:40:14;97792.59;;;1.62;86.43
72636;BME280;60679;48.888;15.544;2024-01-30T12:42:40;97780.41;;;1.60;85.93
72636;BME280;60679;48.888;15.544;2024-01-30T12:45:08;97775.97;;;1.70;86.33
72636;BME280;60679;48.888;15.544;2024-01-30T12:47:34;97777.22;;;1.96;85.73
72636;BME280;60679;48.888;15.544;2024-01-30T12:49:59;97773.69;;;2.75;83.84